Ile Lifou, New Caledonia
Current Conditions -  °F | °C
As of 9:30 PM on Saturday 25 Oct 2014 (Local Time) from NWWW Reporting Station
Broken Clouds Broken Clouds  
Wind Chill: 66°   Ceiling: 6400
Heat Index: 66°   Visibility: 6mi
Dew Point: 55°   Wind: 3mph
Humidity: 68%   Direction: 150°SSE
Pressure: 30.06"   Gusts: NA
Location:  20.9°S, 167.2°E
Report Text: NWWW 251030Z AUTO 15003KT 9999 BKN064 BKN074 19/13 Q1018
Loading
Personal Weather Stations






























Interactive Weather Map
Tropical Storm Tracking
New forecast layout! Learn more

10-Day Weather Forecast

Advertisements
Track Severe Weather on mobile